createdAt,value
2019-03-23T00:04:04.376Z,13.53
2019-03-23T00:09:11.073Z,12.03
2019-03-23T00:14:17.973Z,29.52
2019-03-23T00:19:24.772Z,17.35
2019-03-23T00:24:31.563Z,16.15
2019-03-23T00:29:38.266Z,14.07
2019-03-23T00:34:45.110Z,6.53
2019-03-23T00:39:51.751Z,6.53
2019-03-23T00:44:58.705Z,5.95
2019-03-23T00:50:05.612Z,5.28
2019-03-23T00:55:12.310Z,6.00
2019-03-23T01:00:19.001Z,5.08
2019-03-23T01:05:25.840Z,7.03
2019-03-23T01:10:32.588Z,6.97
2019-03-23T01:15:39.380Z,8.20
2019-03-23T01:20:49.917Z,8.43
2019-03-23T01:25:54.479Z,13.13
2019-03-23T01:31:01.376Z,12.95
2019-03-23T01:36:08.756Z,14.13
2019-03-23T01:41:15.504Z,13.62
2019-03-23T01:46:22.405Z,12.73
2019-03-23T01:51:29.045Z,16.50
2019-03-23T01:56:35.658Z,22.52
2019-03-23T02:01:42.394Z,32.33
2019-03-23T02:06:49.224Z,16.95
2019-03-23T02:11:55.782Z,12.60
2019-03-23T02:17:02.675Z,10.82
2019-03-23T02:22:09.483Z,19.52
2019-03-23T02:27:16.258Z,19.17
2019-03-23T02:32:22.971Z,15.93
2019-03-23T02:37:29.940Z,13.78
2019-03-23T02:42:36.581Z,13.18
2019-03-23T02:47:43.516Z,17.50
2019-03-23T02:52:50.245Z,14.95
2019-03-23T02:57:56.882Z,12.23
2019-03-23T03:03:03.706Z,12.45
2019-03-23T03:08:10.277Z,9.50
2019-03-23T03:13:16.990Z,10.08
2019-03-23T03:18:23.629Z,10.00
2019-03-23T03:23:30.347Z,10.93
2019-03-23T03:28:37.083Z,9.60
2019-03-23T03:33:43.676Z,10.43
2019-03-23T03:38:50.433Z,11.83
2019-03-23T03:43:57.399Z,9.55
2019-03-23T03:49:12.218Z,9.50
2019-03-23T03:54:12.558Z,9.20
2019-03-23T03:59:19.310Z,7.55
2019-03-23T04:04:26.150Z,7.37
2019-03-23T04:09:32.855Z,8.75
2019-03-23T04:14:39.621Z,9.88
2019-03-23T04:19:46.296Z,9.13
2019-03-23T04:24:52.926Z,9.20
2019-03-23T04:29:59.674Z,8.50
2019-03-23T04:35:07.366Z,8.03
2019-03-23T04:40:14.239Z,8.03
2019-03-23T04:45:20.996Z,8.65
2019-03-23T04:50:27.933Z,9.43
2019-03-23T04:55:34.520Z,8.23
2019-03-23T05:00:41.181Z,8.40
2019-03-23T05:05:47.879Z,7.87
2019-03-23T05:10:54.662Z,7.92
2019-03-23T05:16:01.372Z,7.60
2019-03-23T05:21:08.248Z,7.90
2019-03-23T05:26:15.256Z,8.10
2019-03-23T05:31:21.854Z,7.70
2019-03-23T05:36:28.750Z,7.47
2019-03-23T05:41:35.486Z,8.43
2019-03-23T05:46:42.288Z,7.97
2019-03-23T05:51:49.131Z,8.28
2019-03-23T05:56:56.033Z,7.30
2019-03-23T06:02:02.664Z,7.95
2019-03-23T06:07:09.563Z,8.55
2019-03-23T06:12:17.684Z,8.88
2019-03-23T06:17:24.417Z,8.30
2019-03-23T06:22:31.008Z,8.23
2019-03-23T06:27:37.836Z,8.38
2019-03-23T06:32:44.527Z,8.28
2019-03-23T06:37:51.214Z,8.98
2019-03-23T06:42:59.851Z,9.08
2019-03-23T06:48:06.364Z,10.03
2019-03-23T06:53:12.941Z,10.25
2019-03-23T06:58:19.727Z,11.10
2019-03-23T07:03:26.442Z,14.50
2019-03-23T07:08:33.135Z,15.15
2019-03-23T07:13:39.789Z,15.65
2019-03-23T07:18:46.512Z,12.80
2019-03-23T07:23:53.199Z,13.20
2019-03-23T07:29:00.352Z,11.63
2019-03-23T07:34:07.181Z,10.80
2019-03-23T07:39:13.773Z,11.08
2019-03-23T07:44:20.439Z,8.48
2019-03-23T07:49:28.001Z,7.70
2019-03-23T07:54:35.251Z,8.05
2019-03-23T07:59:42.256Z,8.30
2019-03-23T08:04:48.742Z,8.75
2019-03-23T08:09:55.133Z,5.90
2019-03-23T08:15:02.154Z,6.30
2019-03-23T08:20:09.183Z,6.10
2019-03-23T08:25:18.217Z,5.75
2019-03-23T08:30:24.975Z,7.12
2019-03-23T08:35:31.746Z,5.72
2019-03-23T08:40:38.440Z,5.70
2019-03-23T08:45:45.025Z,5.50
2019-03-23T08:50:51.606Z,5.30
2019-03-23T08:55:58.413Z,5.22
2019-03-23T09:01:05.409Z,5.22
2019-03-23T09:06:12.475Z,5.22
2019-03-23T09:11:20.659Z,5.08
2019-03-23T09:16:27.730Z,5.20
2019-03-23T09:21:34.641Z,4.78
2019-03-23T09:26:41.244Z,4.50
2019-03-23T09:31:48.135Z,4.03
2019-03-23T09:36:55.073Z,3.90
2019-03-23T09:42:02.121Z,4.00
2019-03-23T09:47:08.764Z,3.90
2019-03-23T09:52:15.765Z,3.50
2019-03-23T09:57:22.818Z,3.65
2019-03-23T10:02:29.415Z,3.45
2019-03-23T10:07:36.201Z,2.77
2019-03-23T10:12:43.013Z,3.50
2019-03-23T10:17:50.005Z,2.95
2019-03-23T10:22:56.699Z,2.98
2019-03-23T10:28:03.509Z,3.17
2019-03-23T10:33:10.413Z,3.02
2019-03-23T10:38:17.297Z,3.00
2019-03-23T10:43:23.986Z,3.17
2019-03-23T10:48:30.958Z,2.77
2019-03-23T10:53:37.585Z,2.55
2019-03-23T10:58:44.250Z,2.42
2019-03-23T11:03:51.077Z,2.42
2019-03-23T11:08:57.670Z,2.37
2019-03-23T11:14:04.318Z,2.40
2019-03-23T11:19:13.550Z,2.37
2019-03-23T11:24:19.274Z,2.47
2019-03-23T11:29:25.870Z,2.65
2019-03-23T11:34:32.608Z,2.27
2019-03-23T11:39:39.159Z,2.55
2019-03-23T11:44:45.871Z,2.60
2019-03-23T11:49:52.518Z,2.83
2019-03-23T11:54:59.490Z,2.70
2019-03-23T12:00:07.173Z,2.87
2019-03-23T12:05:14.416Z,2.50
2019-03-23T12:10:21.197Z,2.62
2019-03-23T12:15:29.881Z,3.25
2019-03-23T12:20:36.596Z,2.37
2019-03-23T12:25:43.232Z,2.40
2019-03-23T12:30:49.843Z,2.50
2019-03-23T12:35:56.650Z,2.80
2019-03-23T12:41:14.158Z,2.92
2019-03-23T12:46:12.017Z,2.25
2019-03-23T12:51:18.750Z,2.33
2019-03-23T12:56:25.339Z,2.47
2019-03-23T13:01:32.104Z,2.75
2019-03-23T13:06:38.795Z,8.23
2019-03-23T13:11:45.485Z,2.58
2019-03-23T13:16:52.068Z,3.25
2019-03-23T13:21:58.867Z,2.83
2019-03-23T13:27:05.670Z,2.70
2019-03-23T13:32:12.941Z,2.58
2019-03-23T13:37:20.184Z,6.47
2019-03-23T13:42:27.081Z,2.80
2019-03-23T13:47:33.813Z,2.30
2019-03-23T13:52:40.508Z,2.60
2019-03-23T13:57:47.204Z,2.47
2019-03-23T14:02:53.793Z,3.40
2019-03-23T14:08:00.382Z,4.12
2019-03-23T14:13:06.871Z,3.40
2019-03-23T14:18:13.463Z,3.58
2019-03-23T14:23:20.163Z,3.20
2019-03-23T14:28:26.850Z,3.60
2019-03-23T14:33:33.618Z,3.65
2019-03-23T14:38:40.291Z,3.90
2019-03-23T14:43:46.988Z,4.00
2019-03-23T14:48:53.420Z,4.42
2019-03-23T14:54:00.174Z,4.10
2019-03-23T14:59:06.984Z,4.17
2019-03-23T15:04:14.251Z,4.10
2019-03-23T15:09:21.227Z,3.95
2019-03-23T15:14:27.916Z,4.05
2019-03-23T15:19:34.704Z,3.67
2019-03-23T15:24:42.120Z,4.22
2019-03-23T15:29:48.721Z,4.53
2019-03-23T15:34:55.404Z,4.12
2019-03-23T15:40:02.375Z,3.95
2019-03-23T15:45:10.123Z,4.03
2019-03-23T15:50:17.133Z,4.05
2019-03-23T15:55:23.854Z,4.08
2019-03-23T16:00:30.786Z,4.10
2019-03-23T16:05:37.588Z,4.00
2019-03-23T16:10:44.075Z,3.70
2019-03-23T16:15:50.901Z,3.62
2019-03-23T16:20:57.594Z,3.67
2019-03-23T16:26:04.303Z,3.58
2019-03-23T16:31:11.135Z,3.30
2019-03-23T16:36:17.707Z,3.42
2019-03-23T16:41:24.851Z,3.70
2019-03-23T16:46:31.585Z,3.12
2019-03-23T16:51:38.391Z,3.60
2019-03-23T16:56:45.112Z,3.52
2019-03-23T17:01:51.765Z,3.33
2019-03-23T17:07:04.543Z,3.25
2019-03-23T17:12:11.391Z,3.80
2019-03-23T17:17:18.294Z,3.67
2019-03-23T17:22:25.038Z,3.92
2019-03-23T17:27:31.676Z,3.98
2019-03-23T17:32:38.691Z,3.67
2019-03-23T17:37:45.426Z,4.05
2019-03-23T17:42:52.024Z,3.75
2019-03-23T17:47:58.728Z,4.17
2019-03-23T17:53:05.350Z,3.95
2019-03-23T17:58:12.181Z,4.00
2019-03-23T18:03:18.790Z,3.75
2019-03-23T18:08:25.512Z,4.15
2019-03-23T18:13:32.233Z,3.75
2019-03-23T18:18:39.229Z,4.00
2019-03-23T18:23:46.260Z,3.85
2019-03-23T18:28:52.777Z,4.08
2019-03-23T18:33:59.876Z,3.75
2019-03-23T18:39:07.473Z,7.05
2019-03-23T18:44:16.457Z,8.10
2019-03-23T18:49:22.566Z,7.08
2019-03-23T18:54:29.155Z,4.97
2019-03-23T18:59:35.919Z,4.40
2019-03-23T19:04:42.667Z,4.72
2019-03-23T19:09:49.069Z,5.78
2019-03-23T19:14:55.930Z,13.40
2019-03-23T19:20:02.661Z,20.72
2019-03-23T19:25:17.067Z,10.90
2019-03-23T19:30:18.444Z,5.03
2019-03-23T19:35:25.236Z,4.47
2019-03-23T19:40:31.827Z,4.30
2019-03-23T19:45:38.668Z,7.17
2019-03-23T19:50:45.418Z,9.08
2019-03-23T19:55:53.640Z,12.63
2019-03-23T20:01:00.272Z,9.65
2019-03-23T20:06:07.096Z,10.23
2019-03-23T20:11:14.039Z,27.58
2019-03-23T20:16:20.762Z,28.75
2019-03-23T20:21:27.455Z,39.25
2019-03-23T20:26:33.967Z,7.53
2019-03-23T20:31:40.707Z,10.45
2019-03-23T20:36:47.542Z,11.88
2019-03-23T20:41:54.848Z,7.00
2019-03-23T20:47:01.850Z,5.53
2019-03-23T20:52:08.258Z,4.92
2019-03-23T20:57:23.493Z,5.00
2019-03-23T21:02:23.566Z,5.75
2019-03-23T21:07:30.334Z,8.35
2019-03-23T21:12:37.223Z,8.98
2019-03-23T21:17:51.142Z,7.03
2019-03-23T21:22:52.654Z,4.50
2019-03-23T21:27:59.667Z,4.70
2019-03-23T21:33:06.558Z,4.33
2019-03-23T21:38:13.287Z,4.60
2019-03-23T21:43:20.113Z,4.45
2019-03-23T21:48:26.779Z,4.47
2019-03-23T21:53:33.469Z,4.92
2019-03-23T21:58:39.961Z,4.87
2019-03-23T22:03:46.857Z,10.10
2019-03-23T22:08:53.742Z,6.85
2019-03-23T22:14:00.334Z,12.80
2019-03-23T22:19:07.246Z,9.10
2019-03-23T22:24:13.843Z,7.70
2019-03-23T22:29:20.588Z,6.42
2019-03-23T22:34:27.223Z,4.95
2019-03-23T22:39:33.918Z,5.30
2019-03-23T22:44:40.719Z,5.12
2019-03-23T22:49:47.615Z,6.00
2019-03-23T22:54:54.426Z,9.95
2019-03-23T23:00:01.173Z,14.18
2019-03-23T23:05:08.595Z,17.60
2019-03-23T23:10:15.414Z,13.62
2019-03-23T23:15:22.009Z,12.58
2019-03-23T23:20:28.727Z,19.37
2019-03-23T23:25:35.531Z,17.90
2019-03-23T23:30:42.253Z,16.87
2019-03-23T23:35:49.399Z,16.30
2019-03-23T23:40:56.454Z,12.78
2019-03-23T23:46:02.986Z,12.55
2019-03-23T23:51:09.541Z,12.98
2019-03-23T23:56:16.170Z,14.55
